Terminal Aerodrome Forecast
Issued by NWS

Home | Current Version | Previous Version | Text Only | Print | Product List | Glossary On
Versions: 1 2 3 4 5 6 7 8 9 10 11 12 13 14 15 16 17 18 19 20 21 22 23
000
FTUS43 KLSX 302059 AAA
TAFUIN
TAF AMD
KUIN 302059Z 3021/0118 31011KT P6SM SCT040 BKN250
     FM010100 VRB04KT P6SM BKN100
     FM010900 17005KT 6SM BR VCSH OVC050=

USA.gov is the U.S. government's official web portal to all federal, state and local government web resources and services.